sensor_id;sensor_type;location;lat;lon;timestamp;temperature;humidity
22966;DHT22;11649;48.090;9.754;2024-01-07T00:00:05;3.30;99.90
22966;DHT22;11649;48.090;9.754;2024-01-07T00:02:32;3.20;99.90
22966;DHT22;11649;48.090;9.754;2024-01-07T00:04:59;3.30;99.90
22966;DHT22;11649;48.090;9.754;2024-01-07T00:07:26;3.20;99.90
22966;DHT22;11649;48.090;9.754;2024-01-07T00:10:09;3.20;99.90
22966;DHT22;11649;48.090;9.754;2024-01-07T00:12:36;3.10;99.90
22966;DHT22;11649;48.090;9.754;2024-01-07T00:15:04;3.10;99.90
22966;DHT22;11649;48.090;9.754;2024-01-07T00:17:31;3.20;99.90
22966;DHT22;11649;48.090;9.754;2024-01-07T00:19:57;3.10;99.90
22966;DHT22;11649;48.090;9.754;2024-01-07T00:22:24;3.10;99.90
22966;DHT22;11649;48.090;9.754;2024-01-07T00:24:51;3.10;99.90
22966;DHT22;11649;48.090;9.754;2024-01-07T00:27:18;3.30;99.90
22966;DHT22;11649;48.090;9.754;2024-01-07T00:29:45;3.40;99.90
22966;DHT22;11649;48.090;9.754;2024-01-07T00:32:12;3.30;99.90
22966;DHT22;11649;48.090;9.754;2024-01-07T00:34:38;3.30;99.90
22966;DHT22;11649;48.090;9.754;2024-01-07T00:37:05;3.20;99.90
22966;DHT22;11649;48.090;9.754;2024-01-07T00:39:32;3.30;99.90
22966;DHT22;11649;48.090;9.754;2024-01-07T00:41:59;3.20;99.90
22966;DHT22;11649;48.090;9.754;2024-01-07T00:44:26;3.20;99.90
22966;DHT22;11649;48.090;9.754;2024-01-07T00:46:55;3.80;99.90
22966;DHT22;11649;48.090;9.754;2024-01-07T00:49:21;3.30;99.90
22966;DHT22;11649;48.090;9.754;2024-01-07T00:51:49;3.30;99.90
22966;DHT22;11649;48.090;9.754;2024-01-07T00:54:16;3.40;99.90
22966;DHT22;11649;48.090;9.754;2024-01-07T00:56:43;3.40;99.90
22966;DHT22;11649;48.090;9.754;2024-01-07T00:59:10;3.20;99.90
22966;DHT22;11649;48.090;9.754;2024-01-07T01:01:36;3.10;99.90
22966;DHT22;11649;48.090;9.754;2024-01-07T01:04:04;3.10;99.90
22966;DHT22;11649;48.090;9.754;2024-01-07T01:06:30;3.10;99.90
22966;DHT22;11649;48.090;9.754;2024-01-07T01:08:57;3.00;99.90
22966;DHT22;11649;48.090;9.754;2024-01-07T01:11:24;3.10;99.90
22966;DHT22;11649;48.090;9.754;2024-01-07T01:13:54;3.10;99.90
22966;DHT22;11649;48.090;9.754;2024-01-07T01:16:21;3.20;99.90
22966;DHT22;11649;48.090;9.754;2024-01-07T01:18:51;3.00;99.90
22966;DHT22;11649;48.090;9.754;2024-01-07T01:21:18;3.10;99.90
22966;DHT22;11649;48.090;9.754;2024-01-07T01:23:46;3.10;99.90
22966;DHT22;11649;48.090;9.754;2024-01-07T01:26:15;3.20;99.90
22966;DHT22;11649;48.090;9.754;2024-01-07T01:28:41;3.00;99.90
22966;DHT22;11649;48.090;9.754;2024-01-07T01:31:12;3.10;99.90
22966;DHT22;11649;48.090;9.754;2024-01-07T01:33:39;3.10;99.90
22966;DHT22;11649;48.090;9.754;2024-01-07T01:36:06;3.00;99.90
22966;DHT22;11649;48.090;9.754;2024-01-07T01:38:33;2.90;99.90
22966;DHT22;11649;48.090;9.754;2024-01-07T01:41:00;2.90;99.90
22966;DHT22;11649;48.090;9.754;2024-01-07T01:43:28;2.90;99.90
22966;DHT22;11649;48.090;9.754;2024-01-07T01:45:56;3.00;99.90
22966;DHT22;11649;48.090;9.754;2024-01-07T01:48:24;3.10;99.90
22966;DHT22;11649;48.090;9.754;2024-01-07T01:50:52;3.20;99.90
22966;DHT22;11649;48.090;9.754;2024-01-07T01:53:20;3.20;99.90
22966;DHT22;11649;48.090;9.754;2024-01-07T01:55:47;3.20;99.90
22966;DHT22;11649;48.090;9.754;2024-01-07T01:58:15;3.30;99.90
22966;DHT22;11649;48.090;9.754;2024-01-07T02:00:50;3.40;99.90
22966;DHT22;11649;48.090;9.754;2024-01-07T02:03:20;3.30;99.90
22966;DHT22;11649;48.090;9.754;2024-01-07T02:05:48;3.40;99.90
22966;DHT22;11649;48.090;9.754;2024-01-07T02:08:17;3.50;99.90
22966;DHT22;11649;48.090;9.754;2024-01-07T02:10:45;3.50;99.90
22966;DHT22;11649;48.090;9.754;2024-01-07T02:13:11;3.40;99.90
22966;DHT22;11649;48.090;9.754;2024-01-07T02:15:38;3.40;99.90
22966;DHT22;11649;48.090;9.754;2024-01-07T02:18:05;3.50;99.90
22966;DHT22;11649;48.090;9.754;2024-01-07T02:20:32;3.50;99.90
22966;DHT22;11649;48.090;9.754;2024-01-07T02:22:59;3.50;99.90
22966;DHT22;11649;48.090;9.754;2024-01-07T02:25:26;3.30;99.90
22966;DHT22;11649;48.090;9.754;2024-01-07T02:27:52;3.10;99.90
22966;DHT22;11649;48.090;9.754;2024-01-07T02:30:19;3.10;99.90
22966;DHT22;11649;48.090;9.754;2024-01-07T02:32:47;3.10;99.90
22966;DHT22;11649;48.090;9.754;2024-01-07T02:35:14;3.20;99.90
22966;DHT22;11649;48.090;9.754;2024-01-07T02:37:40;3.20;99.90
22966;DHT22;11649;48.090;9.754;2024-01-07T02:40:07;3.30;99.90
22966;DHT22;11649;48.090;9.754;2024-01-07T02:42:34;3.40;99.90
22966;DHT22;11649;48.090;9.754;2024-01-07T02:45:01;3.40;99.90
22966;DHT22;11649;48.090;9.754;2024-01-07T02:47:28;3.30;99.90
22966;DHT22;11649;48.090;9.754;2024-01-07T02:49:55;3.30;99.90
22966;DHT22;11649;48.090;9.754;2024-01-07T02:52:22;3.30;99.90
22966;DHT22;11649;48.090;9.754;2024-01-07T02:54:49;3.30;99.90
22966;DHT22;11649;48.090;9.754;2024-01-07T02:57:16;3.40;99.90
22966;DHT22;11649;48.090;9.754;2024-01-07T02:59:52;3.30;99.90
22966;DHT22;11649;48.090;9.754;2024-01-07T03:02:19;3.30;99.90
22966;DHT22;11649;48.090;9.754;2024-01-07T03:04:46;3.20;99.90
22966;DHT22;11649;48.090;9.754;2024-01-07T03:07:12;3.30;99.90
22966;DHT22;11649;48.090;9.754;2024-01-07T03:09:39;3.30;99.90
22966;DHT22;11649;48.090;9.754;2024-01-07T03:12:06;3.30;99.90
22966;DHT22;11649;48.090;9.754;2024-01-07T03:14:33;3.30;99.90
22966;DHT22;11649;48.090;9.754;2024-01-07T03:17:20;3.20;99.90
22966;DHT22;11649;48.090;9.754;2024-01-07T03:19:48;3.10;99.90
22966;DHT22;11649;48.090;9.754;2024-01-07T03:22:15;3.10;99.90
22966;DHT22;11649;48.090;9.754;2024-01-07T03:24:42;3.10;99.90
22966;DHT22;11649;48.090;9.754;2024-01-07T03:27:11;3.00;99.90
22966;DHT22;11649;48.090;9.754;2024-01-07T03:29:39;2.80;99.90
22966;DHT22;11649;48.090;9.754;2024-01-07T03:32:06;2.70;99.90
22966;DHT22;11649;48.090;9.754;2024-01-07T03:34:33;2.90;99.90
22966;DHT22;11649;48.090;9.754;2024-01-07T03:37:00;2.90;99.90
22966;DHT22;11649;48.090;9.754;2024-01-07T03:39:27;2.80;99.90
22966;DHT22;11649;48.090;9.754;2024-01-07T03:41:57;3.00;99.90
22966;DHT22;11649;48.090;9.754;2024-01-07T03:44:24;3.00;99.90
22966;DHT22;11649;48.090;9.754;2024-01-07T03:46:50;2.90;99.90
22966;DHT22;11649;48.090;9.754;2024-01-07T03:49:17;2.90;99.90
22966;DHT22;11649;48.090;9.754;2024-01-07T03:51:44;2.80;99.90
22966;DHT22;11649;48.090;9.754;2024-01-07T03:54:11;2.80;99.90
22966;DHT22;11649;48.090;9.754;2024-01-07T03:56:38;2.90;99.90
22966;DHT22;11649;48.090;9.754;2024-01-07T03:59:05;2.90;99.90
22966;DHT22;11649;48.090;9.754;2024-01-07T04:01:32;2.90;99.90
22966;DHT22;11649;48.090;9.754;2024-01-07T04:03:59;3.00;99.90
22966;DHT22;11649;48.090;9.754;2024-01-07T04:06:26;3.10;99.90
22966;DHT22;11649;48.090;9.754;2024-01-07T04:08:52;2.90;99.90
22966;DHT22;11649;48.090;9.754;2024-01-07T04:11:19;2.90;99.90
22966;DHT22;11649;48.090;9.754;2024-01-07T04:13:46;2.90;99.90
22966;DHT22;11649;48.090;9.754;2024-01-07T04:16:20;2.60;99.90
22966;DHT22;11649;48.090;9.754;2024-01-07T04:18:47;2.60;99.90
22966;DHT22;11649;48.090;9.754;2024-01-07T04:21:19;2.60;99.90
22966;DHT22;11649;48.090;9.754;2024-01-07T04:23:47;2.60;99.90
22966;DHT22;11649;48.090;9.754;2024-01-07T04:26:13;2.60;99.90
22966;DHT22;11649;48.090;9.754;2024-01-07T04:28:44;2.60;99.90
22966;DHT22;11649;48.090;9.754;2024-01-07T04:31:10;2.50;99.90
22966;DHT22;11649;48.090;9.754;2024-01-07T04:33:37;2.60;99.90
22966;DHT22;11649;48.090;9.754;2024-01-07T04:36:05;2.70;99.90
22966;DHT22;11649;48.090;9.754;2024-01-07T04:38:32;2.40;99.90
22966;DHT22;11649;48.090;9.754;2024-01-07T04:40:59;2.50;99.90
22966;DHT22;11649;48.090;9.754;2024-01-07T04:43:26;2.40;99.90
22966;DHT22;11649;48.090;9.754;2024-01-07T04:45:52;2.30;99.90
22966;DHT22;11649;48.090;9.754;2024-01-07T04:48:19;2.40;99.90
22966;DHT22;11649;48.090;9.754;2024-01-07T04:50:46;2.50;99.90
22966;DHT22;11649;48.090;9.754;2024-01-07T04:53:13;2.50;99.90
22966;DHT22;11649;48.090;9.754;2024-01-07T04:55:40;2.40;99.90
22966;DHT22;11649;48.090;9.754;2024-01-07T04:58:07;2.60;99.90
22966;DHT22;11649;48.090;9.754;2024-01-07T05:00:34;2.70;99.90
22966;DHT22;11649;48.090;9.754;2024-01-07T05:03:01;2.80;99.90
22966;DHT22;11649;48.090;9.754;2024-01-07T05:05:27;2.80;99.90
22966;DHT22;11649;48.090;9.754;2024-01-07T05:07:54;2.80;99.90
22966;DHT22;11649;48.090;9.754;2024-01-07T05:10:21;2.80;99.90
22966;DHT22;11649;48.090;9.754;2024-01-07T05:12:48;2.70;99.90
22966;DHT22;11649;48.090;9.754;2024-01-07T05:15:15;2.80;99.90
22966;DHT22;11649;48.090;9.754;2024-01-07T05:17:42;2.80;99.90
22966;DHT22;11649;48.090;9.754;2024-01-07T05:20:09;2.80;99.90
22966;DHT22;11649;48.090;9.754;2024-01-07T05:22:36;2.90;99.90
22966;DHT22;11649;48.090;9.754;2024-01-07T05:25:03;3.00;99.90
22966;DHT22;11649;48.090;9.754;2024-01-07T05:27:31;3.00;99.90
22966;DHT22;11649;48.090;9.754;2024-01-07T05:29:58;3.00;99.90
22966;DHT22;11649;48.090;9.754;2024-01-07T05:32:25;3.00;99.90
22966;DHT22;11649;48.090;9.754;2024-01-07T05:34:52;3.00;99.90
22966;DHT22;11649;48.090;9.754;2024-01-07T05:37:19;2.90;99.90
22966;DHT22;11649;48.090;9.754;2024-01-07T05:39:45;2.90;99.90
22966;DHT22;11649;48.090;9.754;2024-01-07T05:42:14;2.90;99.90
22966;DHT22;11649;48.090;9.754;2024-01-07T05:44:40;2.90;99.90
22966;DHT22;11649;48.090;9.754;2024-01-07T05:47:07;2.90;99.90
22966;DHT22;11649;48.090;9.754;2024-01-07T05:49:34;3.00;99.90
22966;DHT22;11649;48.090;9.754;2024-01-07T05:52:01;2.90;99.90
22966;DHT22;11649;48.090;9.754;2024-01-07T05:54:28;3.00;99.90
22966;DHT22;11649;48.090;9.754;2024-01-07T05:56:58;3.00;99.90
22966;DHT22;11649;48.090;9.754;2024-01-07T05:59:24;3.00;99.90
22966;DHT22;11649;48.090;9.754;2024-01-07T06:02:10;3.00;99.90
22966;DHT22;11649;48.090;9.754;2024-01-07T06:04:39;2.90;99.90
22966;DHT22;11649;48.090;9.754;2024-01-07T06:07:06;2.80;99.90
22966;DHT22;11649;48.090;9.754;2024-01-07T06:09:34;2.80;99.90
22966;DHT22;11649;48.090;9.754;2024-01-07T06:12:01;2.70;99.90
22966;DHT22;11649;48.090;9.754;2024-01-07T06:14:28;2.80;99.90
22966;DHT22;11649;48.090;9.754;2024-01-07T06:16:55;2.90;99.90
22966;DHT22;11649;48.090;9.754;2024-01-07T06:19:22;2.80;99.90
22966;DHT22;11649;48.090;9.754;2024-01-07T06:21:49;2.70;99.90
22966;DHT22;11649;48.090;9.754;2024-01-07T06:24:16;2.80;99.90
22966;DHT22;11649;48.090;9.754;2024-01-07T06:26:43;2.80;99.90
22966;DHT22;11649;48.090;9.754;2024-01-07T06:29:10;2.80;99.90
22966;DHT22;11649;48.090;9.754;2024-01-07T06:31:43;2.80;99.90
22966;DHT22;11649;48.090;9.754;2024-01-07T06:34:11;2.80;99.90
22966;DHT22;11649;48.090;9.754;2024-01-07T06:36:41;2.80;99.90
22966;DHT22;11649;48.090;9.754;2024-01-07T06:39:11;2.60;99.90
22966;DHT22;11649;48.090;9.754;2024-01-07T06:41:37;2.60;99.90
22966;DHT22;11649;48.090;9.754;2024-01-07T06:44:04;2.70;99.90
22966;DHT22;11649;48.090;9.754;2024-01-07T06:46:31;2.70;99.90
22966;DHT22;11649;48.090;9.754;2024-01-07T06:49:00;3.80;99.90
22966;DHT22;11649;48.090;9.754;2024-01-07T06:51:28;2.80;99.90
22966;DHT22;11649;48.090;9.754;2024-01-07T06:53:55;2.70;99.90
22966;DHT22;11649;48.090;9.754;2024-01-07T06:56:22;2.80;99.90
22966;DHT22;11649;48.090;9.754;2024-01-07T06:58:51;2.80;99.90
22966;DHT22;11649;48.090;9.754;2024-01-07T07:01:20;2.80;99.90
22966;DHT22;11649;48.090;9.754;2024-01-07T07:03:49;2.80;99.90
22966;DHT22;11649;48.090;9.754;2024-01-07T07:06:16;2.80;99.90
22966;DHT22;11649;48.090;9.754;2024-01-07T07:08:44;2.90;99.90
22966;DHT22;11649;48.090;9.754;2024-01-07T07:11:10;2.70;99.90
22966;DHT22;11649;48.090;9.754;2024-01-07T07:13:37;2.70;99.90
22966;DHT22;11649;48.090;9.754;2024-01-07T07:16:05;2.60;99.90
22966;DHT22;11649;48.090;9.754;2024-01-07T07:18:32;2.70;99.90
22966;DHT22;11649;48.090;9.754;2024-01-07T07:21:00;2.80;99.90
22966;DHT22;11649;48.090;9.754;2024-01-07T07:23:27;2.80;99.90
22966;DHT22;11649;48.090;9.754;2024-01-07T07:25:54;2.80;99.90
22966;DHT22;11649;48.090;9.754;2024-01-07T07:28:21;2.90;99.90
22966;DHT22;11649;48.090;9.754;2024-01-07T07:30:48;3.00;99.90
22966;DHT22;11649;48.090;9.754;2024-01-07T07:33:18;2.90;99.90
22966;DHT22;11649;48.090;9.754;2024-01-07T07:35:45;2.90;99.90
22966;DHT22;11649;48.090;9.754;2024-01-07T07:38:12;2.90;99.90
22966;DHT22;11649;48.090;9.754;2024-01-07T07:40:41;2.90;99.90
22966;DHT22;11649;48.090;9.754;2024-01-07T07:43:27;2.70;99.90
22966;DHT22;11649;48.090;9.754;2024-01-07T07:45:55;2.70;99.90
22966;DHT22;11649;48.090;9.754;2024-01-07T07:48:22;2.70;99.90
22966;DHT22;11649;48.090;9.754;2024-01-07T07:50:49;2.60;99.90
22966;DHT22;11649;48.090;9.754;2024-01-07T07:53:16;3.60;99.90
22966;DHT22;11649;48.090;9.754;2024-01-07T07:55:43;2.50;99.90
22966;DHT22;11649;48.090;9.754;2024-01-07T07:58:10;2.50;99.90
22966;DHT22;11649;48.090;9.754;2024-01-07T08:00:37;2.50;99.90
22966;DHT22;11649;48.090;9.754;2024-01-07T08:03:05;2.50;99.90
22966;DHT22;11649;48.090;9.754;2024-01-07T08:05:32;2.60;99.90
22966;DHT22;11649;48.090;9.754;2024-01-07T08:07:58;2.30;99.90
22966;DHT22;11649;48.090;9.754;2024-01-07T08:10:25;3.00;99.90
22966;DHT22;11649;48.090;9.754;2024-01-07T08:12:52;3.60;99.90
22966;DHT22;11649;48.090;9.754;2024-01-07T08:15:19;2.90;99.90
22966;DHT22;11649;48.090;9.754;2024-01-07T08:17:46;3.20;99.90
22966;DHT22;11649;48.090;9.754;2024-01-07T08:20:13;4.00;99.90
22966;DHT22;11649;48.090;9.754;2024-01-07T08:22:40;3.20;99.90
22966;DHT22;11649;48.090;9.754;2024-01-07T08:25:07;3.20;99.90
22966;DHT22;11649;48.090;9.754;2024-01-07T08:27:34;3.10;99.90
22966;DHT22;11649;48.090;9.754;2024-01-07T08:30:01;3.10;99.90
22966;DHT22;11649;48.090;9.754;2024-01-07T08:32:28;3.90;99.90
22966;DHT22;11649;48.090;9.754;2024-01-07T08:34:55;3.20;99.90
22966;DHT22;11649;48.090;9.754;2024-01-07T08:37:22;4.20;99.90
22966;DHT22;11649;48.090;9.754;2024-01-07T08:39:49;3.20;99.90
22966;DHT22;11649;48.090;9.754;2024-01-07T08:42:16;3.30;99.90
22966;DHT22;11649;48.090;9.754;2024-01-07T08:44:43;3.10;99.90
22966;DHT22;11649;48.090;9.754;2024-01-07T08:47:10;4.50;99.90
22966;DHT22;11649;48.090;9.754;2024-01-07T08:49:39;3.20;99.90
22966;DHT22;11649;48.090;9.754;2024-01-07T08:52:06;3.30;99.90
22966;DHT22;11649;48.090;9.754;2024-01-07T08:54:34;3.20;99.90
22966;DHT22;11649;48.090;9.754;2024-01-07T08:57:02;3.20;99.90
22966;DHT22;11649;48.090;9.754;2024-01-07T08:59:28;3.20;99.90
22966;DHT22;11649;48.090;9.754;2024-01-07T09:01:55;3.10;99.90
22966;DHT22;11649;48.090;9.754;2024-01-07T09:04:22;3.20;99.90
22966;DHT22;11649;48.090;9.754;2024-01-07T09:06:55;4.50;99.90
22966;DHT22;11649;48.090;9.754;2024-01-07T09:09:22;3.20;99.90
22966;DHT22;11649;48.090;9.754;2024-01-07T09:11:49;3.20;99.90
22966;DHT22;11649;48.090;9.754;2024-01-07T09:14:16;3.20;99.90
22966;DHT22;11649;48.090;9.754;2024-01-07T09:16:43;3.50;99.90
22966;DHT22;11649;48.090;9.754;2024-01-07T09:19:10;3.40;99.90
22966;DHT22;11649;48.090;9.754;2024-01-07T09:21:41;3.30;99.90
22966;DHT22;11649;48.090;9.754;2024-01-07T09:24:07;3.40;99.90
22966;DHT22;11649;48.090;9.754;2024-01-07T09:26:35;3.30;99.90
22966;DHT22;11649;48.090;9.754;2024-01-07T09:29:01;3.40;99.90
22966;DHT22;11649;48.090;9.754;2024-01-07T09:31:28;3.50;99.90
22966;DHT22;11649;48.090;9.754;2024-01-07T09:33:56;3.40;99.90
22966;DHT22;11649;48.090;9.754;2024-01-07T09:36:23;3.40;99.90
22966;DHT22;11649;48.090;9.754;2024-01-07T09:38:56;3.40;99.90
22966;DHT22;11649;48.090;9.754;2024-01-07T09:41:23;3.40;99.90
22966;DHT22;11649;48.090;9.754;2024-01-07T09:43:51;3.50;99.90
22966;DHT22;11649;48.090;9.754;2024-01-07T09:46:22;3.60;99.90
22966;DHT22;11649;48.090;9.754;2024-01-07T09:48:49;4.10;99.90
22966;DHT22;11649;48.090;9.754;2024-01-07T09:51:20;3.60;99.90
22966;DHT22;11649;48.090;9.754;2024-01-07T09:53:48;4.80;99.90
22966;DHT22;11649;48.090;9.754;2024-01-07T09:56:49;3.70;99.90
22966;DHT22;11649;48.090;9.754;2024-01-07T09:59:17;3.70;99.90
22966;DHT22;11649;48.090;9.754;2024-01-07T10:01:45;4.60;99.90
22966;DHT22;11649;48.090;9.754;2024-01-07T10:04:15;3.50;99.90
22966;DHT22;11649;48.090;9.754;2024-01-07T10:06:42;3.40;99.90
22966;DHT22;11649;48.090;9.754;2024-01-07T10:09:18;3.40;99.90
22966;DHT22;11649;48.090;9.754;2024-01-07T10:11:45;4.00;99.90
22966;DHT22;11649;48.090;9.754;2024-01-07T10:14:12;3.30;99.90
22966;DHT22;11649;48.090;9.754;2024-01-07T10:16:40;3.20;99.90
22966;DHT22;11649;48.090;9.754;2024-01-07T10:19:07;3.20;99.90
22966;DHT22;11649;48.090;9.754;2024-01-07T10:21:34;3.20;99.90
22966;DHT22;11649;48.090;9.754;2024-01-07T10:24:08;4.70;99.90
22966;DHT22;11649;48.090;9.754;2024-01-07T10:26:40;3.10;99.90
22966;DHT22;11649;48.090;9.754;2024-01-07T10:29:08;3.10;99.90
22966;DHT22;11649;48.090;9.754;2024-01-07T10:31:37;3.90;99.90
22966;DHT22;11649;48.090;9.754;2024-01-07T10:34:07;4.00;99.90
22966;DHT22;11649;48.090;9.754;2024-01-07T10:36:36;2.90;99.90
22966;DHT22;11649;48.090;9.754;2024-01-07T10:39:04;2.90;99.90
22966;DHT22;11649;48.090;9.754;2024-01-07T10:41:31;2.90;99.90
22966;DHT22;11649;48.090;9.754;2024-01-07T10:44:01;2.90;99.90
22966;DHT22;11649;48.090;9.754;2024-01-07T10:46:28;2.90;99.90
22966;DHT22;11649;48.090;9.754;2024-01-07T10:49:04;2.90;99.90
22966;DHT22;11649;48.090;9.754;2024-01-07T10:51:34;2.80;99.90
22966;DHT22;11649;48.090;9.754;2024-01-07T10:54:01;2.80;99.90
22966;DHT22;11649;48.090;9.754;2024-01-07T10:56:41;2.90;99.90
22966;DHT22;11649;48.090;9.754;2024-01-07T10:59:10;2.80;99.90
22966;DHT22;11649;48.090;9.754;2024-01-07T11:01:37;2.70;99.90
22966;DHT22;11649;48.090;9.754;2024-01-07T11:04:23;2.70;99.90
22966;DHT22;11649;48.090;9.754;2024-01-07T11:07:00;4.50;99.90
22966;DHT22;11649;48.090;9.754;2024-01-07T11:09:35;2.90;99.90
22966;DHT22;11649;48.090;9.754;2024-01-07T11:12:03;2.70;99.90
22966;DHT22;11649;48.090;9.754;2024-01-07T11:17:01;2.50;99.90
22966;DHT22;11649;48.090;9.754;2024-01-07T11:19:29;3.30;99.90
22966;DHT22;11649;48.090;9.754;2024-01-07T11:22:25;2.70;99.90
22966;DHT22;11649;48.090;9.754;2024-01-07T11:24:59;2.60;99.90
22966;DHT22;11649;48.090;9.754;2024-01-07T11:27:29;2.60;99.90
22966;DHT22;11649;48.090;9.754;2024-01-07T11:30:05;2.50;99.90
22966;DHT22;11649;48.090;9.754;2024-01-07T11:32:34;2.50;99.90
22966;DHT22;11649;48.090;9.754;2024-01-07T11:35:02;2.50;99.90
22966;DHT22;11649;48.090;9.754;2024-01-07T11:37:30;2.50;99.90
22966;DHT22;11649;48.090;9.754;2024-01-07T11:39:57;2.50;99.90
22966;DHT22;11649;48.090;9.754;2024-01-07T11:42:25;2.50;99.90
22966;DHT22;11649;48.090;9.754;2024-01-07T11:44:53;2.60;99.90
22966;DHT22;11649;48.090;9.754;2024-01-07T11:47:21;2.70;99.90
22966;DHT22;11649;48.090;9.754;2024-01-07T11:49:49;2.80;99.90
22966;DHT22;11649;48.090;9.754;2024-01-07T11:52:16;2.90;99.90
22966;DHT22;11649;48.090;9.754;2024-01-07T11:54:47;2.90;99.90
22966;DHT22;11649;48.090;9.754;2024-01-07T11:57:14;2.80;99.90
22966;DHT22;11649;48.090;9.754;2024-01-07T11:59:41;2.70;99.90
22966;DHT22;11649;48.090;9.754;2024-01-07T12:02:11;3.50;99.90
22966;DHT22;11649;48.090;9.754;2024-01-07T12:04:45;4.30;99.90
22966;DHT22;11649;48.090;9.754;2024-01-07T12:07:12;4.00;99.90
22966;DHT22;11649;48.090;9.754;2024-01-07T12:09:41;3.80;99.90
22966;DHT22;11649;48.090;9.754;2024-01-07T12:12:08;3.60;99.90
22966;DHT22;11649;48.090;9.754;2024-01-07T12:14:35;3.20;99.90
22966;DHT22;11649;48.090;9.754;2024-01-07T12:17:02;2.70;99.90
22966;DHT22;11649;48.090;9.754;2024-01-07T12:19:29;2.70;99.90
22966;DHT22;11649;48.090;9.754;2024-01-07T12:22:03;4.20;99.90
22966;DHT22;11649;48.090;9.754;2024-01-07T12:24:33;2.70;99.90
22966;DHT22;11649;48.090;9.754;2024-01-07T12:27:06;3.10;99.90
22966;DHT22;11649;48.090;9.754;2024-01-07T12:29:36;2.50;99.90
22966;DHT22;11649;48.090;9.754;2024-01-07T12:32:05;2.50;99.90
22966;DHT22;11649;48.090;9.754;2024-01-07T12:34:32;2.50;99.90
22966;DHT22;11649;48.090;9.754;2024-01-07T12:37:00;3.20;99.90
22966;DHT22;11649;48.090;9.754;2024-01-07T12:39:29;3.60;99.90
22966;DHT22;11649;48.090;9.754;2024-01-07T12:41:56;3.40;99.90
22966;DHT22;11649;48.090;9.754;2024-01-07T12:44:27;3.90;99.90
22966;DHT22;11649;48.090;9.754;2024-01-07T12:46:54;3.80;99.90
22966;DHT22;11649;48.090;9.754;2024-01-07T12:49:21;3.60;99.90
22966;DHT22;11649;48.090;9.754;2024-01-07T12:51:50;3.50;99.90
22966;DHT22;11649;48.090;9.754;2024-01-07T12:54:34;3.90;99.90
22966;DHT22;11649;48.090;9.754;2024-01-07T12:57:01;3.50;99.90
22966;DHT22;11649;48.090;9.754;2024-01-07T12:59:28;2.50;99.90
22966;DHT22;11649;48.090;9.754;2024-01-07T13:01:56;2.50;99.90
22966;DHT22;11649;48.090;9.754;2024-01-07T13:04:24;3.00;99.90
22966;DHT22;11649;48.090;9.754;2024-01-07T13:06:51;3.10;99.90
22966;DHT22;11649;48.090;9.754;2024-01-07T13:09:19;3.40;99.90
22966;DHT22;11649;48.090;9.754;2024-01-07T13:11:46;1.80;99.90
22966;DHT22;11649;48.090;9.754;2024-01-07T13:14:12;3.10;99.90
22966;DHT22;11649;48.090;9.754;2024-01-07T13:16:39;1.80;99.90
22966;DHT22;11649;48.090;9.754;2024-01-07T13:19:06;3.00;99.90
22966;DHT22;11649;48.090;9.754;2024-01-07T13:21:35;3.30;99.90
22966;DHT22;11649;48.090;9.754;2024-01-07T13:24:06;2.80;99.90
22966;DHT22;11649;48.090;9.754;2024-01-07T13:26:32;3.30;99.90
22966;DHT22;11649;48.090;9.754;2024-01-07T13:28:59;2.30;99.90
22966;DHT22;11649;48.090;9.754;2024-01-07T13:31:26;2.20;99.90
22966;DHT22;11649;48.090;9.754;2024-01-07T13:33:53;2.40;99.90
22966;DHT22;11649;48.090;9.754;2024-01-07T13:36:20;2.40;99.90
22966;DHT22;11649;48.090;9.754;2024-01-07T13:38:47;2.50;99.90
22966;DHT22;11649;48.090;9.754;2024-01-07T13:41:16;2.40;99.90
22966;DHT22;11649;48.090;9.754;2024-01-07T13:43:43;2.40;99.90
22966;DHT22;11649;48.090;9.754;2024-01-07T13:46:10;3.20;99.90
22966;DHT22;11649;48.090;9.754;2024-01-07T13:48:38;2.20;99.90
22966;DHT22;11649;48.090;9.754;2024-01-07T13:51:09;2.30;99.90
22966;DHT22;11649;48.090;9.754;2024-01-07T13:53:36;2.30;99.90
22966;DHT22;11649;48.090;9.754;2024-01-07T13:56:03;2.30;99.90
22966;DHT22;11649;48.090;9.754;2024-01-07T13:58:30;2.30;99.90
22966;DHT22;11649;48.090;9.754;2024-01-07T14:00:57;2.30;99.90
22966;DHT22;11649;48.090;9.754;2024-01-07T14:03:24;2.00;99.90
22966;DHT22;11649;48.090;9.754;2024-01-07T14:05:51;1.90;99.90
22966;DHT22;11649;48.090;9.754;2024-01-07T14:08:18;1.90;99.90
22966;DHT22;11649;48.090;9.754;2024-01-07T14:10:45;1.80;99.90
22966;DHT22;11649;48.090;9.754;2024-01-07T14:13:12;1.80;99.90
22966;DHT22;11649;48.090;9.754;2024-01-07T14:15:39;1.90;99.90
22966;DHT22;11649;48.090;9.754;2024-01-07T14:18:06;1.80;99.90
22966;DHT22;11649;48.090;9.754;2024-01-07T14:20:33;1.80;99.90
22966;DHT22;11649;48.090;9.754;2024-01-07T14:23:00;1.80;99.90
22966;DHT22;11649;48.090;9.754;2024-01-07T14:25:27;1.80;99.90
22966;DHT22;11649;48.090;9.754;2024-01-07T14:27:53;1.80;99.90
22966;DHT22;11649;48.090;9.754;2024-01-07T14:30:20;1.80;99.90
22966;DHT22;11649;48.090;9.754;2024-01-07T14:32:47;1.80;99.90
22966;DHT22;11649;48.090;9.754;2024-01-07T14:35:14;1.80;99.90
22966;DHT22;11649;48.090;9.754;2024-01-07T14:37:41;1.80;99.90
22966;DHT22;11649;48.090;9.754;2024-01-07T14:40:08;1.80;99.90
22966;DHT22;11649;48.090;9.754;2024-01-07T14:42:40;1.80;99.90
22966;DHT22;11649;48.090;9.754;2024-01-07T14:45:09;1.80;99.90
22966;DHT22;11649;48.090;9.754;2024-01-07T14:47:36;1.70;99.90
22966;DHT22;11649;48.090;9.754;2024-01-07T14:50:03;1.60;99.90
22966;DHT22;11649;48.090;9.754;2024-01-07T14:52:33;1.70;99.90
22966;DHT22;11649;48.090;9.754;2024-01-07T14:55:01;1.60;99.90
22966;DHT22;11649;48.090;9.754;2024-01-07T14:57:29;1.70;99.90
22966;DHT22;11649;48.090;9.754;2024-01-07T14:59:56;1.60;99.90
22966;DHT22;11649;48.090;9.754;2024-01-07T15:02:22;1.60;99.90
22966;DHT22;11649;48.090;9.754;2024-01-07T15:04:49;1.60;99.90
22966;DHT22;11649;48.090;9.754;2024-01-07T15:07:17;1.60;99.90
22966;DHT22;11649;48.090;9.754;2024-01-07T15:09:47;1.60;99.90
22966;DHT22;11649;48.090;9.754;2024-01-07T15:12:13;1.60;99.90
22966;DHT22;11649;48.090;9.754;2024-01-07T15:14:44;1.60;99.90
22966;DHT22;11649;48.090;9.754;2024-01-07T15:17:13;1.60;99.90
22966;DHT22;11649;48.090;9.754;2024-01-07T15:19:44;1.60;99.90
22966;DHT22;11649;48.090;9.754;2024-01-07T15:22:12;1.50;99.90
22966;DHT22;11649;48.090;9.754;2024-01-07T15:24:42;1.50;99.90
22966;DHT22;11649;48.090;9.754;2024-01-07T15:27:09;1.50;99.90
22966;DHT22;11649;48.090;9.754;2024-01-07T15:29:36;1.50;99.90
22966;DHT22;11649;48.090;9.754;2024-01-07T15:32:04;1.50;99.90
22966;DHT22;11649;48.090;9.754;2024-01-07T15:34:31;1.50;99.90
22966;DHT22;11649;48.090;9.754;2024-01-07T15:36:57;1.30;99.90
22966;DHT22;11649;48.090;9.754;2024-01-07T15:39:24;1.30;99.90
22966;DHT22;11649;48.090;9.754;2024-01-07T15:41:51;1.30;99.90
22966;DHT22;11649;48.090;9.754;2024-01-07T15:44:21;1.20;99.90
22966;DHT22;11649;48.090;9.754;2024-01-07T15:46:48;1.10;99.90
22966;DHT22;11649;48.090;9.754;2024-01-07T15:49:15;1.10;99.90
22966;DHT22;11649;48.090;9.754;2024-01-07T15:51:42;1.10;99.90